Time;durP1;ratioP1;P1;durP2;ratioP2;P2;SDS_P1;SDS_P2;PMS_P1;PMS_P2;Temp;Humidity;BMP_temperature;BMP_pressure;BME280_temperature;BME280_humidity;BME280_pressure;Samples;Min_cycle;Max_cycle;Signal;HPM_P1;HPM_P2
2022/05/10 00:01:31;;;;;;;12.73;11.13;;;;;;;;;;4994832;28;20521;-84
2022/05/10 00:04:36;;;;;;;12.60;10.73;;;;;;;;;;5005603;28;20224;-83
2022/05/10 00:07:40;;;;;;;13.00;11.60;;;;;;;;;;5005835;28;20671;-84
2022/05/10 00:10:46;;;;;;;11.43;9.80;;;;;;;;;;5014868;28;20188;-84
2022/05/10 00:13:49;;;;;;;11.93;9.63;;;;;;;;;;5004963;28;20217;-84
2022/05/10 00:16:54;;;;;;;12.27;10.83;;;;;;;;;;5006765;28;20184;-84
2022/05/10 00:19:58;;;;;;;11.47;10.27;;;;;;;;;;5025050;28;20227;-84
2022/05/10 00:23:02;;;;;;;10.90;9.87;;;;;;;;;;5005334;28;20228;-84
2022/05/10 00:26:06;;;;;;;10.17;8.97;;;;;;;;;;5016507;28;20537;-84
2022/05/10 00:29:10;;;;;;;13.23;8.67;;;;;;;;;;5005446;28;20537;-84
2022/05/10 00:32:14;;;;;;;11.83;9.17;;;;;;;;;;4993958;28;20197;-84
2022/05/10 00:35:23;;;;;;;10.30;9.30;;;;;;;;;;5005320;28;20189;-84
2022/05/10 00:38:32;;;;;;;11.23;9.30;;;;;;;;;;5005105;28;20193;-83
2022/05/10 00:41:56;;;;;;;11.13;9.23;;;;;;;;;;5012631;28;20212;-83
2022/05/10 00:45:07;;;;;;;11.63;9.30;;;;;;;;;;5024343;28;20224;-83
2022/05/10 00:48:23;;;;;;;9.80;8.80;;;;;;;;;;5024486;28;20185;-84
2022/05/10 00:51:45;;;;;;;9.63;8.60;;;;;;;;;;5024160;28;20189;-84
2022/05/10 00:54:56;;;;;;;10.40;9.00;;;;;;;;;;5013131;28;20291;-83
2022/05/10 00:58:10;;;;;;;10.60;9.60;;;;;;;;;;5005026;28;20193;-84
2022/05/10 01:01:32;;;;;;;10.70;9.20;;;;;;;;;;4993601;28;20186;-84
2022/05/10 01:04:42;;;;;;;10.17;9.17;;;;;;;;;;5004181;28;20218;-84
2022/05/10 01:07:52;;;;;;;11.97;9.80;;;;;;;;;;5004787;28;20186;-84
2022/05/10 01:11:08;;;;;;;11.17;9.97;;;;;;;;;;5010834;28;20177;-84
2022/05/10 01:14:17;;;;;;;13.60;10.70;;;;;;;;;;5023990;28;20209;-84
2022/05/10 01:17:22;;;;;;;12.20;10.90;;;;;;;;;;5004381;28;20196;-83
2022/05/10 01:20:35;;;;;;;13.00;11.67;;;;;;;;;;5004119;28;20706;-84
2022/05/10 01:23:50;;;;;;;13.00;10.70;;;;;;;;;;5004958;28;20227;-83
2022/05/10 01:27:29;;;;;;;12.23;10.93;;;;;;;;;;5016042;28;20205;-83
2022/05/10 01:30:33;;;;;;;11.90;10.63;;;;;;;;;;5004750;28;20655;-84
2022/05/10 01:33:45;;;;;;;12.03;10.83;;;;;;;;;;5008232;28;20220;-84
2022/05/10 01:36:59;;;;;;;13.07;11.57;;;;;;;;;;4992849;28;20552;-83
2022/05/10 01:40:09;;;;;;;12.23;10.83;;;;;;;;;;4997471;28;20587;-84
2022/05/10 01:43:22;;;;;;;17.60;11.67;;;;;;;;;;4993243;28;20221;-84
2022/05/10 01:46:30;;;;;;;13.53;11.43;;;;;;;;;;5015516;28;20185;-84
2022/05/10 01:49:41;;;;;;;13.37;11.20;;;;;;;;;;5004726;28;20185;-84
2022/05/10 01:52:52;;;;;;;16.00;11.90;;;;;;;;;;5032544;28;20219;-83
2022/05/10 01:56:11;;;;;;;13.40;11.70;;;;;;;;;;4992973;28;20184;-84
2022/05/10 01:59:16;;;;;;;13.67;12.27;;;;;;;;;;5003942;28;20213;-83
2022/05/10 02:02:24;;;;;;;14.07;12.57;;;;;;;;;;5018330;28;20208;-83
2022/05/10 02:05:49;;;;;;;13.57;12.17;;;;;;;;;;5022749;28;20204;-83
2022/05/10 02:09:12;;;;;;;16.20;12.30;;;;;;;;;;5017554;28;20203;-84
2022/05/10 02:12:29;;;;;;;13.67;12.10;;;;;;;;;;4997896;28;20188;-86
2022/05/10 02:15:53;;;;;;;13.53;12.13;;;;;;;;;;5016111;28;20176;-87
2022/05/10 02:19:14;;;;;;;14.50;11.70;;;;;;;;;;5015255;28;20188;-87
2022/05/10 02:22:25;;;;;;;13.80;12.43;;;;;;;;;;5002760;28;20703;-87
2022/05/10 02:25:36;;;;;;;13.67;12.30;;;;;;;;;;4990794;28;20205;-87
2022/05/10 02:28:55;;;;;;;14.80;12.40;;;;;;;;;;4998847;28;20196;-87
2022/05/10 02:35:47;;;;;;;12.67;11.27;;;;;;;;;;5019464;28;20201;-87
2022/05/10 02:38:51;;;;;;;12.87;11.60;;;;;;;;;;5020863;28;20185;-87
2022/05/10 02:41:57;;;;;;;12.87;11.57;;;;;;;;;;5009048;28;20180;-86
2022/05/10 02:45:05;;;;;;;15.00;12.47;;;;;;;;;;5009264;28;20247;-87
2022/05/10 02:48:20;;;;;;;15.53;12.30;;;;;;;;;;5010352;28;20204;-87
2022/05/10 02:51:24;;;;;;;12.20;10.90;;;;;;;;;;5013258;28;20185;-86
2022/05/10 02:54:28;;;;;;;12.37;11.17;;;;;;;;;;5013213;28;20216;-86
2022/05/10 02:57:33;;;;;;;13.53;12.03;;;;;;;;;;5010344;28;20200;-87
2022/05/10 03:00:37;;;;;;;13.37;12.07;;;;;;;;;;5004864;28;20213;-85
2022/05/10 03:03:41;;;;;;;12.90;11.60;;;;;;;;;;5004747;28;20221;-86
2022/05/10 03:06:46;;;;;;;13.27;11.97;;;;;;;;;;4993536;28;20197;-87
2022/05/10 03:09:50;;;;;;;12.03;10.83;;;;;;;;;;5004808;28;20721;-87
2022/05/10 03:12:54;;;;;;;13.20;11.53;;;;;;;;;;5011411;28;20200;-86
2022/05/10 03:15:58;;;;;;;13.67;12.27;;;;;;;;;;5013200;28;20652;-87
2022/05/10 03:19:04;;;;;;;13.70;12.30;;;;;;;;;;5024202;28;20196;-87
2022/05/10 03:22:10;;;;;;;12.43;11.17;;;;;;;;;;5026266;28;20193;-87
2022/05/10 03:25:15;;;;;;;13.50;11.97;;;;;;;;;;5004637;28;20186;-87
2022/05/10 03:28:19;;;;;;;12.53;11.33;;;;;;;;;;5015406;28;20177;-87
2022/05/10 03:31:26;;;;;;;13.30;11.47;;;;;;;;;;5005222;28;20186;-85
2022/05/10 03:37:53;;;;;;;12.37;11.17;;;;;;;;;;5006081;28;20201;-85
2022/05/10 03:40:57;;;;;;;13.17;11.80;;;;;;;;;;4995852;28;20209;-84
2022/05/10 03:44:01;;;;;;;11.93;10.73;;;;;;;;;;5022779;28;20225;-83
2022/05/10 03:47:08;;;;;;;13.53;11.57;;;;;;;;;;5017040;28;20185;-86
2022/05/10 03:50:15;;;;;;;14.17;12.77;;;;;;;;;;4993016;28;20173;-87
2022/05/10 03:53:19;;;;;;;13.03;11.27;;;;;;;;;;5010448;23;20213;-85
2022/05/10 03:56:24;;;;;;;13.03;11.73;;;;;;;;;;4965755;28;20179;-85
2022/05/10 03:59:28;;;;;;;13.93;11.30;;;;;;;;;;4953651;28;20195;-86
2022/05/10 04:02:32;;;;;;;14.33;11.70;;;;;;;;;;4965202;28;20195;-85
2022/05/10 04:05:36;;;;;;;13.60;12.20;;;;;;;;;;4926862;29;20192;-85
2022/05/10 04:08:40;;;;;;;13.70;11.97;;;;;;;;;;4919227;29;20184;-85
2022/05/10 04:11:44;;;;;;;13.70;11.90;;;;;;;;;;4934811;29;20192;-86
2022/05/10 04:14:48;;;;;;;18.13;13.00;;;;;;;;;;4946129;29;20223;-86
2022/05/10 04:17:53;;;;;;;14.93;12.80;;;;;;;;;;4943992;29;20187;-85
2022/05/10 04:20:57;;;;;;;13.63;12.23;;;;;;;;;;4956448;29;20690;-85
2022/05/10 04:24:01;;;;;;;14.17;12.57;;;;;;;;;;4945801;29;20575;-85
2022/05/10 04:27:07;;;;;;;13.53;11.30;;;;;;;;;;4926584;29;20196;-86
2022/05/10 04:30:11;;;;;;;13.03;11.63;;;;;;;;;;4935952;29;20691;-85
2022/05/10 04:33:15;;;;;;;14.23;12.33;;;;;;;;;;4956564;28;20184;-85
2022/05/10 04:36:23;;;;;;;13.07;11.77;;;;;;;;;;4945543;29;20567;-85
2022/05/10 04:41:24;;;;;;;13.53;12.13;;;;;;;;;;4945384;29;20516;-85
2022/05/10 04:43:44;;;;;;;13.40;12.10;;;;;;;;;;4945173;29;20207;-85
2022/05/10 04:47:11;;;;;;;13.57;12.03;;;;;;;;;;4950153;29;20196;-85
2022/05/10 04:50:16;;;;;;;16.17;12.13;;;;;;;;;;4955928;29;20191;-87
2022/05/10 04:53:22;;;;;;;14.03;12.63;;;;;;;;;;4955950;28;20222;-85
2022/05/10 04:56:26;;;;;;;18.50;13.53;;;;;;;;;;4929143;29;20206;-86
2022/05/10 04:59:30;;;;;;;17.67;12.57;;;;;;;;;;4934487;29;20188;-85
2022/05/10 05:02:35;;;;;;;13.27;11.97;;;;;;;;;;4925846;29;20184;-85
2022/05/10 05:05:40;;;;;;;14.37;12.90;;;;;;;;;;4926011;29;20187;-85
2022/05/10 05:08:45;;;;;;;14.53;12.57;;;;;;;;;;4927060;29;20207;-86
2022/05/10 05:11:49;;;;;;;16.00;13.30;;;;;;;;;;4955051;28;20202;-88
2022/05/10 05:14:53;;;;;;;14.20;12.63;;;;;;;;;;4944163;29;20234;-85
2022/05/10 05:17:58;;;;;;;14.57;13.00;;;;;;;;;;4944460;29;20207;-87
2022/05/10 05:21:03;;;;;;;15.57;14.03;;;;;;;;;;4944371;29;20214;-85
2022/05/10 05:24:10;;;;;;;15.87;12.80;;;;;;;;;;4933391;29;20709;-88
2022/05/10 05:27:14;;;;;;;16.43;12.03;;;;;;;;;;4943592;29;20215;-88
2022/05/10 05:30:18;;;;;;;14.40;12.90;;;;;;;;;;4944408;29;20191;-88
2022/05/10 05:33:22;;;;;;;17.73;12.10;;;;;;;;;;4944189;28;20273;-88
2022/05/10 05:36:26;;;;;;;13.57;12.17;;;;;;;;;;4932994;29;20214;-87
2022/05/10 05:39:30;;;;;;;16.07;12.40;;;;;;;;;;4943753;29;20210;-88
2022/05/10 05:42:35;;;;;;;15.40;13.60;;;;;;;;;;4933516;29;20195;-88
2022/05/10 05:45:39;;;;;;;15.27;13.67;;;;;;;;;;4924608;29;20574;-86
2022/05/10 05:48:46;;;;;;;14.27;12.87;;;;;;;;;;4965079;28;20194;-87
2022/05/10 05:51:57;;;;;;;14.07;12.67;;;;;;;;;;4927449;29;20582;-87
2022/05/10 05:55:02;;;;;;;15.23;13.73;;;;;;;;;;4941969;29;20238;-88
2022/05/10 05:58:06;;;;;;;15.13;13.30;;;;;;;;;;4928638;29;20211;-87
2022/05/10 06:01:16;;;;;;;14.90;13.00;;;;;;;;;;4929040;29;20740;-87
2022/05/10 06:04:21;;;;;;;14.83;13.33;;;;;;;;;;4944007;28;20234;-88
2022/05/10 06:07:24;;;;;;;16.20;14.57;;;;;;;;;;4954761;29;20206;-88
2022/05/10 06:10:28;;;;;;;16.10;14.40;;;;;;;;;;4932790;29;20205;-87
2022/05/10 06:13:35;;;;;;;16.77;14.47;;;;;;;;;;4926579;29;20226;-87
2022/05/10 06:16:40;;;;;;;15.23;13.57;;;;;;;;;;4935613;29;20191;-87
2022/05/10 06:19:45;;;;;;;16.10;14.40;;;;;;;;;;4924964;29;20191;-87
2022/05/10 06:22:51;;;;;;;23.07;14.73;;;;;;;;;;4915613;29;20199;-88
2022/05/10 06:25:55;;;;;;;15.57;13.97;;;;;;;;;;4917716;29;20215;-87
2022/05/10 06:28:59;;;;;;;14.63;13.13;;;;;;;;;;4928180;29;20277;-87
2022/05/10 06:32:04;;;;;;;15.70;13.80;;;;;;;;;;4928178;29;20198;-87
2022/05/10 06:35:08;;;;;;;17.37;14.70;;;;;;;;;;4927951;29;20226;-87
2022/05/10 06:38:27;;;;;;;15.57;13.63;;;;;;;;;;4917225;29;20206;-87
2022/05/10 06:41:31;;;;;;;15.67;13.93;;;;;;;;;;4927990;29;20227;-87
2022/05/10 06:44:35;;;;;;;15.07;13.53;;;;;;;;;;4928028;29;20231;-88
2022/05/10 06:47:42;;;;;;;18.20;14.03;;;;;;;;;;4928473;29;20192;-88
2022/05/10 06:50:47;;;;;;;16.17;14.57;;;;;;;;;;4917092;29;20203;-87
2022/05/10 06:53:52;;;;;;;20.87;14.03;;;;;;;;;;4917102;29;20231;-87
2022/05/10 06:56:56;;;;;;;16.77;13.00;;;;;;;;;;4928135;29;20199;-88
2022/05/10 07:00:00;;;;;;;18.83;12.40;;;;;;;;;;4917184;29;20659;-88
2022/05/10 07:03:11;;;;;;;15.37;13.67;;;;;;;;;;4938967;29;20191;-88
2022/05/10 07:06:18;;;;;;;15.47;13.53;;;;;;;;;;4916735;29;20202;-88
2022/05/10 07:09:22;;;;;;;14.13;12.17;;;;;;;;;;4917308;29;20540;-87
2022/05/10 07:12:26;;;;;;;14.97;13.47;;;;;;;;;;4927861;29;20187;-87
2022/05/10 07:15:30;;;;;;;16.13;12.67;;;;;;;;;;4916932;29;20682;-87
2022/05/10 07:18:34;;;;;;;12.23;10.93;;;;;;;;;;4927640;29;20191;-87
2022/05/10 07:21:38;;;;;;;12.73;11.30;;;;;;;;;;4927491;29;20216;-87
2022/05/10 07:24:42;;;;;;;13.33;11.97;;;;;;;;;;4916921;29;20223;-88
2022/05/10 07:27:46;;;;;;;12.67;11.17;;;;;;;;;;4927404;29;20191;-87
2022/05/10 07:30:50;;;;;;;11.20;10.13;;;;;;;;;;4916660;29;20686;-87
2022/05/10 07:33:55;;;;;;;11.63;10.53;;;;;;;;;;4926735;29;20223;-88
2022/05/10 07:36:59;;;;;;;14.23;11.93;;;;;;;;;;4916131;29;20187;-87
2022/05/10 07:40:04;;;;;;;13.17;11.87;;;;;;;;;;4927298;29;20191;-88
2022/05/10 07:43:10;;;;;;;15.07;11.53;;;;;;;;;;4926899;29;20187;-88
2022/05/10 07:46:14;;;;;;;12.97;11.70;;;;;;;;;;4926717;29;20207;-86
2022/05/10 07:49:18;;;;;;;13.10;10.47;;;;;;;;;;4927077;29;20547;-86
2022/05/10 07:52:22;;;;;;;12.07;10.70;;;;;;;;;;4915981;29;20544;-86
2022/05/10 07:55:26;;;;;;;12.23;10.30;;;;;;;;;;4926718;29;20215;-87
2022/05/10 07:58:30;;;;;;;10.43;9.43;;;;;;;;;;4915922;29;20200;-87
2022/05/10 08:01:34;;;;;;;10.00;9.03;;;;;;;;;;4916007;29;20212;-87
2022/05/10 08:04:38;;;;;;;11.83;10.73;;;;;;;;;;4915865;29;20216;-87
2022/05/10 08:07:42;;;;;;;11.47;10.33;;;;;;;;;;4915886;29;20195;-87
2022/05/10 08:10:48;;;;;;;9.33;8.33;;;;;;;;;;4926627;29;20187;-86
2022/05/10 08:13:52;;;;;;;10.50;9.40;;;;;;;;;;4915327;29;20222;-86
2022/05/10 08:16:56;;;;;;;11.90;9.53;;;;;;;;;;4926428;29;20554;-86
2022/05/10 08:20:00;;;;;;;9.60;8.70;;;;;;;;;;4915690;29;20186;-87
2022/05/10 08:23:06;;;;;;;10.77;8.03;;;;;;;;;;4926351;29;20186;-86
2022/05/10 08:26:10;;;;;;;11.40;8.70;;;;;;;;;;4915554;29;20187;-86
2022/05/10 08:29:14;;;;;;;9.10;8.20;;;;;;;;;;4927176;29;20639;-83
2022/05/10 08:32:18;;;;;;;8.93;7.97;;;;;;;;;;4916484;29;20626;-84
2022/05/10 08:35:23;;;;;;;9.20;8.20;;;;;;;;;;4938342;29;20210;-86
2022/05/10 08:38:29;;;;;;;17.70;7.00;;;;;;;;;;4944947;29;20193;-83
2022/05/10 08:41:48;;;;;;;6.78;6.18;;;;;;;;;;4945250;29;20687;-84
2022/05/10 08:44:58;;;;;;;8.52;6.35;;;;;;;;;;4925898;29;20233;-85
2022/05/10 08:48:02;;;;;;;8.98;6.70;;;;;;;;;;4926208;29;20634;-85
2022/05/10 08:51:07;;;;;;;6.93;6.22;;;;;;;;;;4935292;29;20203;-84
2022/05/10 08:54:12;;;;;;;8.30;6.45;;;;;;;;;;4943069;29;20374;-86
2022/05/10 08:57:16;;;;;;;10.13;6.53;;;;;;;;;;4956405;29;20181;-84
2022/05/10 09:00:26;;;;;;;6.20;5.60;;;;;;;;;;4933683;29;20195;-85
2022/05/10 09:03:42;;;;;;;8.30;6.57;;;;;;;;;;4944692;28;20218;-85
2022/05/10 09:07:10;;;;;;;7.55;4.82;;;;;;;;;;4933765;29;20657;-85
2022/05/10 09:10:20;;;;;;;4.68;3.88;;;;;;;;;;4940417;28;20185;-85
2022/05/10 09:13:24;;;;;;;7.93;6.18;;;;;;;;;;4925486;28;20219;-85
2022/05/10 09:16:28;;;;;;;5.05;4.00;;;;;;;;;;4933800;29;20525;-85
2022/05/10 09:19:43;;;;;;;4.70;3.58;;;;;;;;;;4944829;29;20196;-85
2022/05/10 09:23:24;;;;;;;4.97;3.50;;;;;;;;;;4932570;29;20211;-85
2022/05/10 09:26:39;;;;;;;6.20;3.53;;;;;;;;;;4947341;29;20549;-85
2022/05/10 09:29:47;;;;;;;6.00;3.65;;;;;;;;;;4925570;29;20193;-85
2022/05/10 09:36:29;;;;;;;5.38;3.40;;;;;;;;;;4937874;29;20192;-85
2022/05/10 09:39:34;;;;;;;5.07;3.58;;;;;;;;;;4925463;29;20201;-85
2022/05/10 09:42:42;;;;;;;3.85;3.47;;;;;;;;;;4933940;29;20579;-85
2022/05/10 09:46:17;;;;;;;3.38;2.90;;;;;;;;;;4925099;29;20208;-85
2022/05/10 09:49:37;;;;;;;5.10;3.33;;;;;;;;;;4955361;29;20204;-86
2022/05/10 09:52:41;;;;;;;5.55;3.88;;;;;;;;;;4955415;29;20188;-85
2022/05/10 09:55:54;;;;;;;4.88;3.10;;;;;;;;;;5001856;23;20234;-87
2022/05/10 09:59:03;;;;;;;5.53;3.17;;;;;;;;;;4981835;28;20174;-88
2022/05/10 10:02:07;;;;;;;5.50;3.17;;;;;;;;;;4971007;28;20207;-88
2022/05/10 10:05:22;;;;;;;7.60;3.35;;;;;;;;;;4970567;28;20222;-87
2022/05/10 10:08:37;;;;;;;4.72;3.03;;;;;;;;;;4982515;28;20187;-87
2022/05/10 10:11:41;;;;;;;3.60;3.00;;;;;;;;;;4993397;28;20540;-88
2022/05/10 10:14:48;;;;;;;7.32;3.30;;;;;;;;;;4982284;28;20214;-88
2022/05/10 10:18:12;;;;;;;4.10;3.20;;;;;;;;;;4970622;28;20645;-88
2022/05/10 10:21:24;;;;;;;3.30;3.00;;;;;;;;;;4982224;28;20186;-87
2022/05/10 10:24:47;;;;;;;7.55;2.92;;;;;;;;;;4973596;28;20638;-85
2022/05/10 10:28:19;;;;;;;3.95;3.08;;;;;;;;;;4962737;28;20545;-87
2022/05/10 10:31:32;;;;;;;3.55;3.25;;;;;;;;;;4984574;28;20190;-88
2022/05/10 10:34:47;;;;;;;3.80;3.17;;;;;;;;;;4992918;28;20554;-87
2022/05/10 10:38:06;;;;;;;3.90;3.47;;;;;;;;;;4982049;28;20201;-89
2022/05/10 10:41:25;;;;;;;3.53;3.22;;;;;;;;;;4992763;28;20198;-88
2022/05/10 10:44:37;;;;;;;3.42;3.13;;;;;;;;;;4982020;28;20189;-87
2022/05/10 10:48:05;;;;;;;3.80;3.35;;;;;;;;;;4973475;28;20200;-86
2022/05/10 10:51:10;;;;;;;6.20;3.72;;;;;;;;;;4992866;28;20190;-86
2022/05/10 10:54:18;;;;;;;5.60;3.85;;;;;;;;;;4981956;28;20181;-86
2022/05/10 10:57:57;;;;;;;6.07;3.55;;;;;;;;;;4982136;28;20182;-86
2022/05/10 11:01:33;;;;;;;6.78;3.58;;;;;;;;;;4965117;28;20178;-86
2022/05/10 11:05:09;;;;;;;4.18;3.40;;;;;;;;;;4983853;28;20541;-86
2022/05/10 11:08:31;;;;;;;3.78;3.47;;;;;;;;;;4981994;28;20622;-86
2022/05/10 11:11:47;;;;;;;5.75;3.35;;;;;;;;;;4985155;28;20189;-86
2022/05/10 11:15:25;;;;;;;5.60;3.25;;;;;;;;;;4996568;28;20684;-86
2022/05/10 11:18:49;;;;;;;4.15;3.70;;;;;;;;;;5007184;28;20553;-86
2022/05/10 11:22:17;;;;;;;3.63;3.30;;;;;;;;;;4974095;28;20210;-86
2022/05/10 11:25:48;;;;;;;4.10;3.70;;;;;;;;;;4979682;28;20598;-86
2022/05/10 11:29:10;;;;;;;4.25;3.45;;;;;;;;;;4984606;28;20190;-86
2022/05/10 11:32:22;;;;;;;3.60;3.30;;;;;;;;;;4984743;28;20646;-86
2022/05/10 11:35:38;;;;;;;4.65;2.80;;;;;;;;;;4983618;28;20210;-86
2022/05/10 11:39:09;;;;;;;3.88;3.17;;;;;;;;;;4984893;28;20529;-86
2022/05/10 11:42:52;;;;;;;5.10;3.03;;;;;;;;;;4984147;28;20218;-86
2022/05/10 11:46:29;;;;;;;3.58;3.30;;;;;;;;;;4976212;28;20211;-86
2022/05/10 11:49:42;;;;;;;4.80;3.20;;;;;;;;;;4983980;28;20198;-86
2022/05/10 11:52:57;;;;;;;4.43;3.40;;;;;;;;;;4977276;28;20186;-86
2022/05/10 11:56:02;;;;;;;3.63;2.83;;;;;;;;;;5006392;28;20226;-87
2022/05/10 11:59:27;;;;;;;5.22;2.95;;;;;;;;;;5002794;28;20174;-85
2022/05/10 12:02:31;;;;;;;3.30;3.00;;;;;;;;;;5001568;28;20206;-84
2022/05/10 12:05:39;;;;;;;5.90;2.92;;;;;;;;;;4988565;28;20218;-84
2022/05/10 12:08:44;;;;;;;3.33;2.83;;;;;;;;;;5004103;28;20187;-85
2022/05/10 12:11:49;;;;;;;3.10;2.80;;;;;;;;;;4985342;28;20190;-85
2022/05/10 12:21:40;;;;;;;2.60;2.40;;;;;;;;;;4983488;28;20178;-85
2022/05/10 12:24:49;;;;;;;4.22;2.83;;;;;;;;;;4983389;28;20206;-85
2022/05/10 12:28:00;;;;;;;2.85;2.65;;;;;;;;;;4991159;28;20182;-85
2022/05/10 12:31:32;;;;;;;2.67;2.33;;;;;;;;;;4975428;28;20188;-85
2022/05/10 12:34:37;;;;;;;7.90;2.60;;;;;;;;;;4976440;28;20178;-85
2022/05/10 12:37:44;;;;;;;5.82;2.65;;;;;;;;;;4993540;28;20191;-85
2022/05/10 12:41:01;;;;;;;3.80;2.40;;;;;;;;;;4975996;28;20187;-85
2022/05/10 12:44:19;;;;;;;6.32;3.00;;;;;;;;;;4978519;28;20211;-85
2022/05/10 12:47:50;;;;;;;4.30;2.20;;;;;;;;;;4995827;28;20195;-86
2022/05/10 12:51:09;;;;;;;2.58;2.38;;;;;;;;;;4982787;28;20191;-87
2022/05/10 12:54:25;;;;;;;2.53;2.33;;;;;;;;;;4993929;28;20529;-86
2022/05/10 12:57:38;;;;;;;2.72;2.20;;;;;;;;;;4982671;28;20202;-85
2022/05/10 13:00:52;;;;;;;2.50;2.30;;;;;;;;;;4967211;28;20191;-86
2022/05/10 13:04:02;;;;;;;4.20;2.65;;;;;;;;;;4976328;28;20216;-86
2022/05/10 13:07:25;;;;;;;3.78;2.65;;;;;;;;;;4985682;28;20187;-86
2022/05/10 13:10:30;;;;;;;3.00;2.45;;;;;;;;;;4980703;28;20194;-86
2022/05/10 13:13:37;;;;;;;7.25;3.13;;;;;;;;;;4982770;28;20622;-85
2022/05/10 13:16:46;;;;;;;5.25;2.95;;;;;;;;;;4978970;28;20230;-86
2022/05/10 13:19:51;;;;;;;7.43;2.55;;;;;;;;;;4993374;28;20198;-85
2022/05/10 13:23:01;;;;;;;6.25;2.50;;;;;;;;;;4982596;28;20555;-86
2022/05/10 13:26:10;;;;;;;4.53;2.58;;;;;;;;;;4981914;28;20556;-84
2022/05/10 13:29:15;;;;;;;2.70;2.10;;;;;;;;;;4992479;28;20198;-84
2022/05/10 13:32:37;;;;;;;4.50;2.63;;;;;;;;;;4963096;28;20191;-83
2022/05/10 13:35:48;;;;;;;3.33;2.63;;;;;;;;;;4983271;28;20226;-83
2022/05/10 13:38:54;;;;;;;2.53;2.30;;;;;;;;;;4993888;28;20190;-83
2022/05/10 13:42:01;;;;;;;3.10;2.65;;;;;;;;;;4980126;28;20178;-83
2022/05/10 13:45:06;;;;;;;2.97;2.28;;;;;;;;;;4984254;28;20214;-83
2022/05/10 13:48:14;;;;;;;3.35;2.60;;;;;;;;;;4995145;28;20198;-83
2022/05/10 13:51:24;;;;;;;5.55;2.88;;;;;;;;;;4994852;28;20641;-82
2022/05/10 13:54:34;;;;;;;3.08;2.40;;;;;;;;;;4994974;28;20187;-83
2022/05/10 13:57:48;;;;;;;3.50;2.38;;;;;;;;;;4983362;28;20212;-83
2022/05/10 14:00:52;;;;;;;4.60;2.67;;;;;;;;;;4995123;28;20186;-83
2022/05/10 14:04:08;;;;;;;2.97;2.70;;;;;;;;;;4983820;28;20210;-82
2022/05/10 14:07:19;;;;;;;4.82;2.47;;;;;;;;;;4994762;28;20186;-83
2022/05/10 14:10:29;;;;;;;2.80;2.60;;;;;;;;;;4994653;28;20183;-83
2022/05/10 14:13:36;;;;;;;3.80;2.90;;;;;;;;;;4983079;28;20523;-82
2022/05/10 14:16:42;;;;;;;2.97;2.75;;;;;;;;;;4994310;28;20218;-82
2022/05/10 14:19:49;;;;;;;3.67;2.63;;;;;;;;;;4983645;28;20175;-82
2022/05/10 14:23:00;;;;;;;2.72;2.30;;;;;;;;;;4982908;28;20221;-82
2022/05/10 14:26:33;;;;;;;3.85;2.58;;;;;;;;;;4983868;28;20654;-83
2022/05/10 14:29:43;;;;;;;4.50;3.00;;;;;;;;;;4998526;28;20182;-82
2022/05/10 14:32:47;;;;;;;3.33;2.63;;;;;;;;;;4997203;28;20179;-83
2022/05/10 14:36:03;;;;;;;4.72;2.60;;;;;;;;;;4990635;28;20214;-83
2022/05/10 14:39:23;;;;;;;3.75;2.97;;;;;;;;;;4984903;28;20630;-83
2022/05/10 14:42:34;;;;;;;4.50;2.72;;;;;;;;;;4983645;28;20182;-83
2022/05/10 14:45:42;;;;;;;3.25;2.47;;;;;;;;;;5000265;28;20226;-82
2022/05/10 14:48:54;;;;;;;8.25;3.25;;;;;;;;;;4987127;28;20198;-83
2022/05/10 14:52:00;;;;;;;4.47;2.58;;;;;;;;;;4987165;28;20187;-83
2022/05/10 14:55:11;;;;;;;3.78;2.65;;;;;;;;;;4986939;28;20221;-83
2022/05/10 14:58:26;;;;;;;4.50;2.38;;;;;;;;;;4986662;28;20199;-82
2022/05/10 15:01:35;;;;;;;4.32;2.40;;;;;;;;;;4986516;28;20190;-83
2022/05/10 15:04:39;;;;;;;2.58;2.38;;;;;;;;;;4999800;28;20234;-84
2022/05/10 15:07:44;;;;;;;2.75;2.50;;;;;;;;;;4986521;28;20190;-84
2022/05/10 15:10:55;;;;;;;2.85;2.53;;;;;;;;;;4970206;28;20207;-88
2022/05/10 15:13:59;;;;;;;8.77;2.35;;;;;;;;;;4984043;28;20202;-88
2022/05/10 15:17:13;;;;;;;3.60;2.75;;;;;;;;;;4984399;28;20191;-87
2022/05/10 15:20:17;;;;;;;2.70;2.50;;;;;;;;;;5004645;28;20186;-87
2022/05/10 15:23:21;;;;;;;4.07;3.05;;;;;;;;;;4990258;28;20669;-87
2022/05/10 15:26:27;;;;;;;3.13;2.60;;;;;;;;;;4981983;28;20214;-87
2022/05/10 15:29:34;;;;;;;3.58;2.85;;;;;;;;;;4991444;28;20193;-87
2022/05/10 15:32:39;;;;;;;3.00;2.30;;;;;;;;;;4991536;28;20193;-86
2022/05/10 15:35:43;;;;;;;2.92;2.60;;;;;;;;;;4991803;28;20215;-87
2022/05/10 15:38:51;;;;;;;2.88;2.60;;;;;;;;;;4991380;28;20193;-86
2022/05/10 15:41:55;;;;;;;3.55;2.55;;;;;;;;;;4989686;28;20194;-87
2022/05/10 15:45:00;;;;;;;4.60;2.70;;;;;;;;;;4991357;28;20228;-86
2022/05/10 15:48:06;;;;;;;7.25;2.97;;;;;;;;;;5000832;28;20186;-87
2022/05/10 15:51:11;;;;;;;7.00;2.90;;;;;;;;;;5005680;28;20193;-86
2022/05/10 15:54:16;;;;;;;4.65;2.75;;;;;;;;;;4998025;28;20200;-87
2022/05/10 15:57:20;;;;;;;5.95;2.47;;;;;;;;;;5024132;23;20235;-77
2022/05/10 16:00:25;;;;;;;2.97;2.45;;;;;;;;;;4984350;28;20187;-77
2022/05/10 16:03:30;;;;;;;5.05;3.03;;;;;;;;;;4980075;28;20213;-77
2022/05/10 16:06:34;;;;;;;5.70;3.13;;;;;;;;;;4979276;28;20207;-77
2022/05/10 16:09:38;;;;;;;5.07;2.85;;;;;;;;;;4979456;28;20188;-77
2022/05/10 16:12:42;;;;;;;4.13;3.30;;;;;;;;;;4978939;28;20177;-77
2022/05/10 16:15:51;;;;;;;9.32;2.60;;;;;;;;;;4969730;28;20188;-77
2022/05/10 16:18:56;;;;;;;3.72;2.80;;;;;;;;;;4979053;28;20206;-77
2022/05/10 16:22:00;;;;;;;3.80;2.92;;;;;;;;;;4978604;28;20216;-77
2022/05/10 16:25:04;;;;;;;4.53;2.77;;;;;;;;;;4973401;28;20210;-77
2022/05/10 16:31:31;;;;;;;3.07;2.77;;;;;;;;;;4979324;28;20227;-77
2022/05/10 16:34:44;;;;;;;4.87;2.70;;;;;;;;;;4973230;28;20178;-76
2022/05/10 16:37:53;;;;;;;8.37;2.73;;;;;;;;;;4976978;28;20636;-76
2022/05/10 16:40:57;;;;;;;2.83;2.30;;;;;;;;;;4961910;28;20227;-77
2022/05/10 16:44:01;;;;;;;5.20;2.90;;;;;;;;;;4964647;28;20199;-76
2022/05/10 16:47:07;;;;;;;4.37;3.20;;;;;;;;;;4976739;28;20547;-77
2022/05/10 16:50:11;;;;;;;3.43;3.13;;;;;;;;;;4965630;28;20181;-77
2022/05/10 16:53:15;;;;;;;4.23;3.30;;;;;;;;;;4977019;28;20185;-77
2022/05/10 16:56:21;;;;;;;3.03;2.80;;;;;;;;;;4977713;28;20629;-77
2022/05/10 16:59:27;;;;;;;5.57;3.30;;;;;;;;;;4977048;28;20181;-77
2022/05/10 17:02:31;;;;;;;6.33;3.20;;;;;;;;;;4965198;28;20222;-77
2022/05/10 17:05:35;;;;;;;3.67;3.10;;;;;;;;;;4977032;28;20213;-77
2022/05/10 17:08:39;;;;;;;4.13;2.97;;;;;;;;;;4976555;28;20187;-77
2022/05/10 17:11:44;;;;;;;3.63;3.33;;;;;;;;;;4976890;28;20227;-77
2022/05/10 17:14:48;;;;;;;4.73;3.00;;;;;;;;;;4967861;28;20533;-77
2022/05/10 17:17:54;;;;;;;3.70;3.40;;;;;;;;;;4964520;28;20193;-77
2022/05/10 17:21:02;;;;;;;5.17;3.43;;;;;;;;;;4964362;28;20558;-77
2022/05/10 17:24:08;;;;;;;5.40;3.57;;;;;;;;;;4975347;28;20554;-77
2022/05/10 17:27:23;;;;;;;11.30;3.33;;;;;;;;;;4965228;28;20184;-78
2022/05/10 17:30:29;;;;;;;5.47;3.50;;;;;;;;;;4947453;28;20180;-78
2022/05/10 17:33:34;;;;;;;3.87;3.50;;;;;;;;;;4983888;28;20203;-78
2022/05/10 17:36:41;;;;;;;4.63;3.30;;;;;;;;;;4974284;28;20195;-77
2022/05/10 17:39:45;;;;;;;4.83;3.30;;;;;;;;;;4966050;28;20199;-77
2022/05/10 17:42:49;;;;;;;3.37;3.10;;;;;;;;;;4952949;28;20191;-77
2022/05/10 17:45:55;;;;;;;3.70;3.40;;;;;;;;;;4974486;28;20175;-78
2022/05/10 17:49:00;;;;;;;3.97;3.27;;;;;;;;;;4975379;28;20187;-78
2022/05/10 17:52:05;;;;;;;3.63;3.33;;;;;;;;;;4975690;28;20218;-77
2022/05/10 17:55:11;;;;;;;4.47;3.47;;;;;;;;;;4974215;28;20186;-77
2022/05/10 17:58:20;;;;;;;5.97;3.70;;;;;;;;;;4963106;28;20202;-77
2022/05/10 18:01:28;;;;;;;4.70;3.83;;;;;;;;;;4974585;28;20565;-77
2022/05/10 18:04:33;;;;;;;3.97;3.57;;;;;;;;;;4963386;28;20210;-77
2022/05/10 18:07:37;;;;;;;3.70;3.40;;;;;;;;;;4974527;28;20535;-77
2022/05/10 18:10:42;;;;;;;4.93;3.97;;;;;;;;;;4974467;28;20230;-77
2022/05/10 18:13:46;;;;;;;4.10;3.70;;;;;;;;;;4975011;28;20202;-77
2022/05/10 18:16:56;;;;;;;4.20;3.60;;;;;;;;;;4964188;28;20207;-77
2022/05/10 18:20:00;;;;;;;7.40;3.50;;;;;;;;;;4948032;29;20203;-78
2022/05/10 18:23:05;;;;;;;7.90;3.53;;;;;;;;;;4971569;28;20190;-77
2022/05/10 18:26:11;;;;;;;8.20;3.90;;;;;;;;;;4979095;28;20175;-78
2022/05/10 18:29:16;;;;;;;4.33;3.87;;;;;;;;;;4978694;28;20195;-77
2022/05/10 18:32:20;;;;;;;4.30;3.90;;;;;;;;;;4978189;28;20214;-77
2022/05/10 18:35:24;;;;;;;4.63;3.60;;;;;;;;;;4959378;29;20184;-77
2022/05/10 18:38:29;;;;;;;13.67;4.37;;;;;;;;;;4978937;28;20527;-78
2022/05/10 18:41:34;;;;;;;4.70;4.30;;;;;;;;;;4980712;28;20214;-78
2022/05/10 18:44:39;;;;;;;5.27;4.17;;;;;;;;;;4979440;28;20211;-77
2022/05/10 18:47:43;;;;;;;4.30;3.90;;;;;;;;;;4979357;28;20187;-77
2022/05/10 18:50:49;;;;;;;5.80;4.20;;;;;;;;;;4978623;28;20222;-77
2022/05/10 18:53:53;;;;;;;4.23;3.90;;;;;;;;;;4968447;28;20199;-82
2022/05/10 18:56:57;;;;;;;4.87;4.10;;;;;;;;;;4959596;28;20214;-84
2022/05/10 19:00:02;;;;;;;4.57;4.17;;;;;;;;;;4969712;28;20191;-84
2022/05/10 19:03:07;;;;;;;4.57;3.90;;;;;;;;;;4971988;28;20175;-83